sensor_id;sensor_type;location;lat;lon;timestamp;pressure;altitude;pressure_sealevel;temperature;humidity
71642;BME280;60657;50.122;14.468;2023-04-19T00:02:23;98847.64216216038;;;10.679026474402988;84.0129701686122
71642;BME280;60657;50.122;14.468;2023-04-19T00:05:39;98841.00863202717;;;10.63363088426032;83.99389639124132
71642;BME280;60657;50.122;14.468;2023-04-19T00:08:55;98838.53391747539;;;10.700389105058363;83.96528572518501
71642;BME280;60657;50.122;14.468;2023-04-19T00:12:11;98835.17322771097;;;10.606927595941102;84.11215381094073
71642;BME280;60657;50.122;14.468;2023-04-19T00:15:26;98836.8042739223;;;10.494773785000383;84.36202029449912
71642;BME280;60657;50.122;14.468;2023-04-19T00:18:42;98826.75294207067;;;10.516136415655758;84.6157015335317
71642;BME280;60657;50.122;14.468;2023-04-19T00:21:58;98821.81760937444;;;10.54818036163882;84.51842526894026
71642;BME280;60657;50.122;14.468;2023-04-19T00:25:14;98824.32748549197;;;10.598916609445332;84.18081940947586
71642;BME280;60657;50.122;14.468;2023-04-19T00:28:29;98810.20241745235;;;10.57488364995804;84.19989318684672
71642;BME280;60657;50.122;14.468;2023-04-19T00:31:45;98805.21051585449;;;10.478751812008852;84.2761882963302
71642;BME280;60657;50.122;14.468;2023-04-19T00:35:01;98799.38536995076;;;10.558861676966508;84.19607843137256
71642;BME280;60657;50.122;14.468;2023-04-19T00:38:17;98809.32373475435;;;10.40398260471504;84.46692607003891
71642;BME280;60657;50.122;14.468;2023-04-19T00:41:33;98794.3581944458;;;10.387960631723509;84.71679255359732
71642;BME280;60657;50.122;14.468;2023-04-19T00:44:49;98799.29344188927;;;10.401312275883114;84.88654917219806
71642;BME280;60657;50.122;14.468;2023-04-19T00:48:05;98786.06031988448;;;10.486762798504614;84.51651789120318
71642;BME280;60657;50.122;14.468;2023-04-19T00:51:21;98795.15465134113;;;10.36125734340429;84.83886472877089
71642;BME280;60657;50.122;14.468;2023-04-19T00:54:38;98779.40264813557;;;10.39597161821927;84.70153353170062
71642;BME280;60657;50.122;14.468;2023-04-19T00:57:57;98770.24553570077;;;10.385290302891583;84.89799343862059
71642;BME280;60657;50.122;14.468;2023-04-19T01:01:14;98777.7360728014;;;10.406652933546958;84.79118028534371
71642;BME280;60657;50.122;14.468;2023-04-19T01:04:30;98768.62219449338;;;10.425345235370415;84.78164339665827
71642;BME280;60657;50.122;14.468;2023-04-19T01:07:46;98777.75355673961;;;10.406652933546958;84.75494010833906
71642;BME280;60657;50.122;14.468;2023-04-19T01:11:01;98767.79738724013;;;10.526817730983446;84.45738918135348
71642;BME280;60657;50.122;14.468;2023-04-19T01:14:17;98766.12264470814;;;10.43869687953002;84.58518348973831
71642;BME280;60657;50.122;14.468;2023-04-19T01:17:33;98761.95680407851;;;10.393301289387352;84.78164339665827
71642;BME280;60657;50.122;14.468;2023-04-19T01:20:49;98751.11741863034;;;10.355916685740446;85.01052872510873
71642;BME280;60657;50.122;14.468;2023-04-19T01:24:05;98757.73835007672;;;10.334554055085071;85.2203402761883
71642;BME280;60657;50.122;14.468;2023-04-19T01:27:21;98753.59043130977;;;10.345235370412759;85.2642099641413
71642;BME280;60657;50.122;14.468;2023-04-19T01:30:37;98746.91627431409;;;10.246433203631646;85.63805600061036
71642;BME280;60657;50.122;14.468;2023-04-19T01:33:53;98746.91627431409;;;10.297169451438165;85.72198062104219
71642;BME280;60657;50.122;14.468;2023-04-19T01:37:08;98739.44528126749;;;10.270466163118947;85.74677653162432
71642;BME280;60657;50.122;14.468;2023-04-19T01:40:24;98743.60180649997;;;10.302510109102009;85.78301670862898
71642;BME280;60657;50.122;14.468;2023-04-19T01:43:40;98731.20839237187;;;10.377279316395821;85.5598535133898
71642;BME280;60657;50.122;14.468;2023-04-19T01:46:56;98736.96374801063;;;10.297169451438165;85.90318150606547
71642;BME280;60657;50.122;14.468;2023-04-19T01:50:12;98728.66816391355;;;10.342565041580833;85.97947661554895
71642;BME280;60657;50.122;14.468;2023-04-19T01:53:28;98727.8351941283;;;10.299839780270084;86.15686274509804
71642;BME280;60657;50.122;14.468;2023-04-19T01:56:43;98732.8245725615;;;10.281147478446634;86.50782024872206
71642;BME280;60657;50.122;14.468;2023-04-19T01:59:59;98721.21340096953;;;10.273136491950865;86.68902113374533
71642;BME280;60657;50.122;14.468;2023-04-19T02:03:17;98727.81800829986;;;10.25177386129549;86.82825970855268
71642;BME280;60657;50.122;14.468;2023-04-19T02:06:33;98718.6196124678;;;10.171663996337834;87.28412298771649
71642;BME280;60657;50.122;14.468;2023-04-19T02:09:49;98716.97175872605;;;10.227740901808197;87.26314183260853
71642;BME280;60657;50.122;14.468;2023-04-19T02:13:04;98716.92587701506;;;10.12359807736324;87.8563363088426
71642;BME280;60657;50.122;14.468;2023-04-19T02:16:20;98714.43627233649;;;10.094224460212104;88.30075532158389
71642;BME280;60657;50.122;14.468;2023-04-19T02:19:36;98714.43627233649;;;10.096894789044022;88.51247425040054
71642;BME280;60657;50.122;14.468;2023-04-19T02:22:52;98708.56726861247;;;10.019455252918291;88.8863202868696
71642;BME280;60657;50.122;14.468;2023-04-19T02:26:07;98715.2019157515;;;9.987411306935222;88.95689326314184
71642;BME280;60657;50.122;14.468;2023-04-19T02:29:23;98707.73428369594;;;9.95536736095216;89.14572365911346
71642;BME280;60657;50.122;14.468;2023-04-19T02:32:40;98710.21364958653;;;9.901960784313722;89.21438925764859
71642;BME280;60657;50.122;14.468;2023-04-19T02:35:56;98704.42176570409;;;10.016784924086366;89.15144579232471
71642;BME280;60657;50.122;14.468;2023-04-19T02:39:12;98698.5418017782;;;9.901960784313722;89.53864347295338
71642;BME280;60657;50.122;14.468;2023-04-19T02:42:27;98688.6061309063;;;9.917982757305253;89.3746089875639
71642;BME280;60657;50.122;14.468;2023-04-19T02:45:43;98687.76352289486;;;9.960708018616003;89.47188525215533
71642;BME280;60657;50.122;14.468;2023-04-19T02:48:59;98694.39711667692;;;9.885938811322191;89.51003280689707
71642;BME280;60657;50.122;14.468;2023-04-19T02:52:15;98684.470651078;;;9.939345387960628;89.31929503318837
71642;BME280;60657;50.122;14.468;2023-04-19T02:55:31;98686.16430566543;;;10.000762951094835;89.14190890363928
71642;BME280;60657;50.122;14.468;2023-04-19T02:58:46;98670.42261826394;;;10.016784924086366;88.98741130693523
71642;BME280;60657;50.122;14.468;2023-04-19T03:02:02;98669.5899671493;;;10.024795910582135;88.73754482337682
71642;BME280;60657;50.122;14.468;2023-04-19T03:05:18;98675.40132481081;;;10.054169527733272;88.81574731059739
71642;BME280;60657;50.122;14.468;2023-04-19T03:08:34;98671.2889886785;;;10.134279392690928;88.46860456244755
71642;BME280;60657;50.122;14.468;2023-04-19T03:11:50;98667.92467631346;;;10.043488212405585;88.48195620660715
71642;BME280;60657;50.122;14.468;2023-04-19T03:15:06;98672.08793188604;;;10.056839856565198;88.31219958800641
71642;BME280;60657;50.122;14.468;2023-04-19T03:18:23;98667.92467631346;;;10.08087281605249;88.2854962996872
71642;BME280;60657;50.122;14.468;2023-04-19T03:21:38;98665.46073163701;;;10.099565117875947;88.20157167925537
71642;BME280;60657;50.122;14.468;2023-04-19T03:24:54;98652.98897212156;;;10.059510185397116;88.19394216830702
71642;BME280;60657;50.122;14.468;2023-04-19T03:28:10;98655.50289275336;;;10.04615854123751;87.930724040589
71642;BME280;60657;50.122;14.468;2023-04-19T03:31:25;98659.69699736778;;;10.099565117875947;87.64461738002593
71642;BME280;60657;50.122;14.468;2023-04-19T03:34:41;98649.75986993879;;;10.158312352178228;87.67513542381933
71642;BME280;60657;50.122;14.468;2023-04-19T03:37:57;98648.09509754162;;;10.126268406195166;87.61409933623254
71642;BME280;60657;50.122;14.468;2023-04-19T03:41:21;98643.9110279256;;;10.12359807736324;87.62172884718089
71642;BME280;60657;50.122;14.468;2023-04-19T03:44:38;98642.23866587978;;;10.126268406195166;87.38330663004501
71642;BME280;60657;50.122;14.468;2023-04-19T03:47:53;98632.25024384943;;;10.067521171892885;87.43671320668345
71642;BME280;60657;50.122;14.468;2023-04-19T03:51:09;98636.41967147692;;;10.056839856565198;87.57213702601663
71642;BME280;60657;50.122;14.468;2023-04-19T03:54:25;98632.27307585448;;;10.067521171892885;87.41954680704967
71642;BME280;60657;50.122;14.468;2023-04-19T03:57:41;98629.77613535935;;;9.992751964599066;87.32799267566949
71642;BME280;60657;50.122;14.468;2023-04-19T04:00:57;98621.40612792988;;;9.931334401464866;87.42526894026093
71642;BME280;60657;50.122;14.468;2023-04-19T04:04:13;98617.25267118792;;;9.915312428473335;87.32608529793241
71642;BME280;60657;50.122;14.468;2023-04-19T04:07:29;98618.07686694455;;;9.917982757305253;87.19256885633631
71642;BME280;60657;50.122;14.468;2023-04-19T04:10:45;98623.89498917398;;;9.931334401464866;87.01518272678722
71642;BME280;60657;50.122;14.468;2023-04-19T04:14:00;98624.76706143549;;;10.006103608758679;86.82063019760433
71642;BME280;60657;50.122;14.468;2023-04-19T04:17:17;98627.26398665448;;;10.043488212405585;86.92553597314412
71642;BME280;60657;50.122;14.468;2023-04-19T04:20:37;98618.94878763473;;;10.00343327992676;86.80537117570763
71642;BME280;60657;50.122;14.468;2023-04-19T04:23:53;98628.95130530678;;;10.08087281605249;86.74814984359503
71642;BME280;60657;50.122;14.468;2023-04-19T04:27:09;98632.30232701857;;;10.067521171892885;86.58220798046845
71642;BME280;60657;50.122;14.468;2023-04-19T04:30:25;98624.0147701708;;;10.15030136568246;86.26176852063783
71642;BME280;60657;50.122;14.468;2023-04-19T04:33:41;98623.21557760632;;;10.152971694514385;86.11299305714503
71642;BME280;60657;50.122;14.468;2023-04-19T04:36:57;98623.21557760632;;;10.227740901808197;86.04051270313573
71642;BME280;60657;50.122;14.468;2023-04-19T04:40:12;98629.81966069445;;;10.099565117875947;86.2369726100557
71642;BME280;60657;50.122;14.468;2023-04-19T04:43:28;98619.05485761771;;;10.206378271152822;85.84214541847868
71642;BME280;60657;50.122;14.468;2023-04-19T04:46:44;98620.68599419363;;;10.12359807736324;85.93751430533302
71642;BME280;60657;50.122;14.468;2023-04-19T04:50:01;98629.7909842696;;;10.094224460212104;85.7811093308919
71642;BME280;60657;50.122;14.468;2023-04-19T04:53:19;98619.78871502701;;;9.939345387960628;85.54840924696727
71642;BME280;60657;50.122;14.468;2023-04-19T04:56:34;98617.30705959549;;;10.030136568245979;85.30045014114596
71642;BME280;60657;50.122;14.468;2023-04-19T04:59:50;98615.6040889189;;;9.95536736095216;85.29854276340886
71642;BME280;60657;50.122;14.468;2023-04-19T05:03:06;98615.61974887975;;;9.966048676279847;85.00099183642328
71642;BME280;60657;50.122;14.468;2023-04-19T05:06:22;98613.93955700762;;;9.920653086137179;84.51461051346608
71642;BME280;60657;50.122;14.468;2023-04-19T05:09:37;98611.45070430354;;;9.904631113145648;84.32005798428321
71642;BME280;60657;50.122;14.468;2023-04-19T05:12:53;98617.26863603095;;;10.008773937590604;84.14076447699702
71642;BME280;60657;50.122;14.468;2023-04-19T05:16:09;98614.8103771607;;;9.931334401464866;83.72304875257495
71642;BME280;60657;50.122;14.468;2023-04-19T05:19:25;98615.6040889189;;;9.904631113145648;84.04730296787976
71642;BME280;60657;50.122;14.468;2023-04-19T05:22:41;98617.24456120133;;;9.909971770809491;84.27428091859312
71642;BME280;60657;50.122;14.468;2023-04-19T05:25:59;98615.58808875906;;;9.875257495994504;84.09880216678111
71642;BME280;60657;50.122;14.468;2023-04-19T05:29:15;98613.08308951207;;;9.89394979781796;83.80697337300678
71642;BME280;60657;50.122;14.468;2023-04-19T05:32:31;98605.58436152175;;;9.837872892347598;83.69443808651866
71642;BME280;60657;50.122;14.468;2023-04-19T05:35:47;98623.81804327798;;;9.79247730220493;83.21187151903563
71642;BME280;60657;50.122;14.468;2023-04-19T05:39:03;98614.69706258255;;;9.779125658045317;83.14320592050049
71642;BME280;60657;50.122;14.468;2023-04-19T05:42:18;98611.36771163404;;;9.72571908140688;82.85709925993744
71642;BME280;60657;50.122;14.468;2023-04-19T05:45:34;98608.88806987066;;;9.789806973373004;83.10696574349585
71642;BME280;60657;50.122;14.468;2023-04-19T05:48:50;98607.27353557195;;;9.891279468986035;82.0102235446708
71642;BME280;60657;50.122;14.468;2023-04-19T05:52:08;98615.55506803676;;;9.856565194171054;82.17235065232319
71642;BME280;60657;50.122;14.468;2023-04-19T05:55:24;98619.67376084402;;;9.752422369726098;81.93774319066148
71642;BME280;60657;50.122;14.468;2023-04-19T05:58:39;98611.41852745214;;;9.91264209964141;81.78133821622033
71642;BME280;60657;50.122;14.468;2023-04-19T06:01:55;98612.22580764747;;;9.82719157701991;81.9625391012436
71642;BME280;60657;50.122;14.468;2023-04-19T06:05:11;98612.23422563908;;;9.789806973373004;82.06172274357213
71642;BME280;60657;50.122;14.468;2023-04-19T06:08:27;98608.86194517251;;;9.69901579308766;83.00396734569314
71642;BME280;60657;50.122;14.468;2023-04-19T06:11:43;98608.03842158485;;;9.717708094911117;83.15274280918594
71642;BME280;60657;50.122;14.468;2023-04-19T06:14:59;98604.7266120228;;;9.70702677958343;83.15083543144884
71642;BME280;60657;50.122;14.468;2023-04-19T06:18:15;98598.90937488861;;;9.74174105439841;83.3358510719463
71642;BME280;60657;50.122;14.468;2023-04-19T06:21:32;98597.27036422472;;;9.76577401388571;82.8761730373083
71642;BME280;60657;50.122;14.468;2023-04-19T06:24:48;98606.39118374388;;;9.728389410238805;82.94483863584344
71642;BME280;60657;50.122;14.468;2023-04-19T06:28:04;98610.5440740259;;;9.760433356221867;83.1298542763409
71642;BME280;60657;50.122;14.468;2023-04-19T06:31:20;98608.84410382736;;;9.731059739070723;82.92957961394674
71642;BME280;60657;50.122;14.468;2023-04-19T06:34:35;98617.06451212685;;;9.589532310978868;82.78080415045396
71642;BME280;60657;50.122;14.468;2023-04-19T06:37:51;98607.96562652859;;;9.570840009155411;83.12031738765545
71642;BME280;60657;50.122;14.468;2023-04-19T06:41:07;98606.2721111518;;;9.530785076676587;83.09552147707332
71642;BME280;60657;50.122;14.468;2023-04-19T06:44:25;98608.67873596624;;;9.453345540550849;83.72686350804914
71642;BME280;60657;50.122;14.468;2023-04-19T06:47:40;98604.49515555512;;;9.38391699092088;83.41023880369268
71642;BME280;60657;50.122;14.468;2023-04-19T06:50:56;98613.48477291656;;;9.11154345006485;83.21377889677272
71642;BME280;60657;50.122;14.468;2023-04-19T06:54:12;98601.90946832288;;;9.218356603341725;82.5690852216373
71642;BME280;60657;50.122;14.468;2023-04-19T06:57:27;98608.54723855155;;;9.30647745479515;82.68352788586252
71642;BME280;60657;50.122;14.468;2023-04-19T07:00:43;98612.687268441;;;9.314488441290912;82.55954833295186
71642;BME280;60657;50.122;14.468;2023-04-19T07:03:59;98607.75986541038;;;9.335851071946287;82.15327687495231
71642;BME280;60657;50.122;14.468;2023-04-19T07:07:15;98597.80275434387;;;9.314488441290912;82.05981536583505
71642;BME280;60657;50.122;14.468;2023-04-19T07:10:31;98597.11589736138;;;9.592202639810786;81.46089875638971
71642;BME280;60657;50.122;14.468;2023-04-19T07:13:46;98597.88793756768;;;9.474708171206224;81.66498817425803
71642;BME280;60657;50.122;14.468;2023-04-19T07:17:03;98588.93135452637;;;9.79247730220493;80.63881895170519
71642;BME280;60657;50.122;14.468;2023-04-19T07:20:19;98588.16549310413;;;9.856565194171054;79.74425879301137
71642;BME280;60657;50.122;14.468;2023-04-19T07:23:35;98582.52610882478;;;10.23308155947204;79.38185702296482
71642;BME280;60657;50.122;14.468;2023-04-19T07:26:51;98582.5482908702;;;10.305180437933927;79.62409399557488
71642;BME280;60657;50.122;14.468;2023-04-19T07:30:07;98583.40089348164;;;10.262455176623178;78.08293278400855
71642;BME280;60657;50.122;14.468;2023-04-19T07:33:23;98571.70051383848;;;10.011444266422522;78.33470664530404
71642;BME280;60657;50.122;14.468;2023-04-19T07:36:40;98566.6651908266;;;9.982070649271378;78.26794842450599
71642;BME280;60657;50.122;14.468;2023-04-19T07:39:56;98572.48167393717;;;10.006103608758679;77.98756389715419
71642;BME280;60657;50.122;14.468;2023-04-19T07:43:11;98567.57619744302;;;10.142290379186697;77.40581368734264
71642;BME280;60657;50.122;14.468;2023-04-19T07:46:28;98575.92501910994;;;10.299839780270084;76.42923628595408
71642;BME280;60657;50.122;14.468;2023-04-19T07:49:44;98572.63082141597;;;10.329213397421228;74.93385214007782
71642;BME280;60657;50.122;14.468;2023-04-19T07:52:59;98580.92032750325;;;10.329213397421228;74.29678797589075
71642;BME280;60657;50.122;14.468;2023-04-19T07:56:15;98572.68370175242;;;10.660334172579539;72.90630960555428
71642;BME280;60657;50.122;14.468;2023-04-19T07:59:31;98564.42119258207;;;10.986114290074006;71.28503852903029
71642;BME280;60657;50.122;14.468;2023-04-19T08:02:49;98560.27546512314;;;11.2291142137789;70.90547035934996
71642;BME280;60657;50.122;14.468;2023-04-19T08:06:05;98567.7548012051;;;11.1196307316701;70.23025864042116
71642;BME280;60657;50.122;14.468;2023-04-19T08:09:21;98565.22342297292;;;10.585564965285727;70.74715800717173
71642;BME280;60657;50.122;14.468;2023-04-19T08:12:37;98558.58649196477;;;10.660334172579539;70.70328831921874
71642;BME280;60657;50.122;14.468;2023-04-19T08:15:53;98558.59935861158;;;10.8632791638056;69.48065918974594
71642;BME280;60657;50.122;14.468;2023-04-19T08:19:08;98553.61329693609;;;10.84725719081407;67.80788891432059
71642;BME280;60657;50.122;14.468;2023-04-19T08:22:24;98556.94769417853;;;11.309224078736555;62.917372396429386
71642;BME280;60657;50.122;14.468;2023-04-19T08:25:41;98547.66191703072;;;12.104982070649271;61.473487449454495
71642;BME280;60657;50.122;14.468;2023-04-19T08:28:58;98535.76191477657;;;12.663080796520944;62.19638361181049
71642;BME280;60657;50.122;14.468;2023-04-19T08:32:13;98542.39431243138;;;12.5482566567483;60.542687113756
71642;BME280;60657;50.122;14.468;2023-04-19T08:35:29;98538.21775476176;;;12.452124818799113;59.6309605554284
71642;BME280;60657;50.122;14.468;2023-04-19T08:38:45;98532.31571531529;;;12.815289539940487;60.411078049897
71642;BME280;60657;50.122;14.468;2023-04-19T08:42:02;98526.85949034867;;;13.346684977492941;58.9538414587625
71642;BME280;60657;50.122;14.468;2023-04-19T08:45:20;98525.0646723875;;;13.552300297550929;55.3584344243534
71642;BME280;60657;50.122;14.468;2023-04-19T08:48:41;98532.67960842012;;;13.239871824216067;52.28755626764325
71642;BME280;60657;50.122;14.468;2023-04-19T08:52:00;98524.1496945824;;;13.62706950484474;51.4845502403296
71642;BME280;60657;50.122;14.468;2023-04-19T08:55:21;98528.50537630258;;;13.314641031509879;48.5815213244831
71642;BME280;60657;50.122;14.468;2023-04-19T08:58:38;98526.13237571322;;;13.106355382619974;46.14007782101167
71642;BME280;60657;50.122;14.468;2023-04-19T09:01:55;98518.57720052279;;;13.138399328603036;46.37277790493629
71642;BME280;60657;50.122;14.468;2023-04-19T09:05:11;98511.01925527235;;;13.282597085526817;47.627832455939576
71642;BME280;60657;50.122;14.468;2023-04-19T09:08:28;98506.17911790476;;;13.96887159533074;47.96734569314107
71642;BME280;60657;50.122;14.468;2023-04-19T09:11:45;98502.72192534368;;;14.019607843137258;46.51773861295491
71642;BME280;60657;50.122;14.468;2023-04-19T09:15:02;98494.13542785196;;;14.22255283436332;45.218814373998626
71642;BME280;60657;50.122;14.468;2023-04-19T09:18:20;98508.78561664002;;;13.704509040970471;41.78744182497902
71642;BME280;60657;50.122;14.468;2023-04-19T09:21:36;98505.5519752869;;;13.613717860685128;41.848477912565805
71642;BME280;60657;50.122;14.468;2023-04-19T09:24:53;98491.32596328267;;;13.715190356298159;41.745479514763105
71642;BME280;60657;50.122;14.468;2023-04-19T09:28:09;98495.61923218908;;;13.541618982223241;40.940566109712364
71642;BME280;60657;50.122;14.468;2023-04-19T09:31:25;98490.67684889979;;;13.472190432593273;40.75173571374075
71642;BME280;60657;50.122;14.468;2023-04-19T09:34:49;98471.91112717887;;;13.934157320515752;40.77080949111162
71642;BME280;60657;50.122;14.468;2023-04-19T09:38:07;98480.12371606963;;;14.145113298237582;40.66590371557183
71642;BME280;60657;50.122;14.468;2023-04-19T09:41:23;98473.24365399223;;;14.225223163195238;39.569161516746775
71642;BME280;60657;50.122;14.468;2023-04-19T09:44:39;98459.82717685227;;;14.2572671091783;40.45990691996643
71642;BME280;60657;50.122;14.468;2023-04-19T09:47:59;98463.14082086866;;;14.17982757305257;40.355001144426645
71642;BME280;60657;50.122;14.468;2023-04-19T09:51:17;98460.27430125794;;;14.534981307698175;39.30785076676585
71642;BME280;60657;50.122;14.468;2023-04-19T09:54:33;98460.92396867632;;;14.756618600747693;40.18142977035172
71642;BME280;60657;50.122;14.468;2023-04-19T09:57:49;98456.52907455448;;;14.78599221789883;40.64682993820096
71642;BME280;60657;50.122;14.468;2023-04-19T10:01:08;98448.61471685903;;;14.964904249637598;39.765621423666744
71642;BME280;60657;50.122;14.468;2023-04-19T10:04:25;98443.02047904934;;;15.408178835736628;40.196688792248416
71642;BME280;60657;50.122;14.468;2023-04-19T10:07:42;98435.12762906571;;;15.659189745937283;41.07598992904555
71642;BME280;60657;50.122;14.468;2023-04-19T10:10:58;98436.02046252337;;;15.071717402914473;42.32913710231174
71642;BME280;60657;50.122;14.468;2023-04-19T10:14:15;98445.07592378765;;;14.55634393835355;41.95338368810559
71642;BME280;60657;50.122;14.468;2023-04-19T10:17:35;98442.21430480934;;;14.794003204394599;41.65011062790875
71642;BME280;60657;50.122;14.468;2023-04-19T10:20:52;98440.46075823289;;;14.799343862058443;42.12314030670634
71642;BME280;60657;50.122;14.468;2023-04-19T10:24:13;98428.39035182307;;;15.173189898527504;42.390173189898526
71642;BME280;60657;50.122;14.468;2023-04-19T10:27:30;98437.46160455863;;;14.553673609521631;42.28526741435874
71642;BME280;60657;50.122;14.468;2023-04-19T10:30:52;98430.45299168311;;;14.884794384679942;42.22041657129778
71642;BME280;60657;50.122;14.468;2023-04-19T10:34:11;98439.02294781781;;;14.705882352941174;43.93324177920195
71642;BME280;60657;50.122;14.468;2023-04-19T10:37:27;98438.89124315752;;;14.086366063935301;44.648508430609596
71642;BME280;60657;50.122;14.468;2023-04-19T10:40:59;98425.44818297791;;;14.398794537270163;44.9136339360647
71642;BME280;60657;50.122;14.468;2023-04-19T10:44:15;98438.08409397196;;;14.161135271229114;43.86648355840391
71642;BME280;60657;50.122;14.468;2023-04-19T10:47:47;98431.35469976832;;;14.935530632486454;43.96375982299534
71642;BME280;60657;50.122;14.468;2023-04-19T10:51:14;98432.79071054919;;;14.465552758068206;43.9256122682536
71642;BME280;60657;50.122;14.468;2023-04-19T10:54:31;98437.44141790878;;;14.083695735103383;44.190737773708705
71642;BME280;60657;50.122;14.468;2023-04-19T10:58:04;98424.70790369662;;;14.951552605477985;43.65476462958724
71642;BME280;60657;50.122;14.468;2023-04-19T11:01:37;98435.04763584466;;;14.510948348210881;43.17219806210422
71642;BME280;60657;50.122;14.468;2023-04-19T11:04:58;98437.10671101113;;;14.332036316472113;44.15640497444114
71642;BME280;60657;50.122;14.468;2023-04-19T11:08:21;98440.5264961403;;;14.388113221942476;44.4119935912108
71642;BME280;60657;50.122;14.468;2023-04-19T11:11:37;98422.77753836804;;;14.970244907301442;41.9076066224155
71642;BME280;60657;50.122;14.468;2023-04-19T11:14:54;98442.61464200015;;;14.446860456244757;41.79316395819028
71642;BME280;60657;50.122;14.468;2023-04-19T11:18:16;98436.0969197042;;;14.890135042343786;41.6577401388571
71642;BME280;60657;50.122;14.468;2023-04-19T11:21:37;98437.82813679695;;;14.87144274052033;41.1427481498436
71642;BME280;60657;50.122;14.468;2023-04-19T11:24:53;98443.77520035866;;;14.056992446784164;42.977645532921336
71642;BME280;60657;50.122;14.468;2023-04-19T11:28:09;98433.30775983798;;;13.149080643930724;44.34714274814984
71642;BME280;60657;50.122;14.468;2023-04-19T11:31:25;98436.15309103773;;;13.811322194247346;45.55069810025177
71642;BME280;60657;50.122;14.468;2023-04-19T11:34:41;98436.94425075242;;;13.811322194247346;44.44632639047837
71642;BME280;60657;50.122;14.468;2023-04-19T11:37:57;98436.31660817182;;;13.464179446097504;43.2923628595407
71642;BME280;60657;50.122;14.468;2023-04-19T11:41:14;98434.81584902843;;;13.424124513618679;43.370565346761275
71642;BME280;60657;50.122;14.468;2023-04-19T11:44:29;98452.75182031328;;;13.012893873502712;44.45014114595254
71642;BME280;60657;50.122;14.468;2023-04-19T11:47:46;98454.86710875256;;;12.588311589227132;46.85915922789349
71642;BME280;60657;50.122;14.468;2023-04-19T11:51:02;98444.04095300815;;;12.580300602731363;47.62020294499123
71642;BME280;60657;50.122;14.468;2023-04-19T11:54:18;98451.34834192935;;;12.916762035553518;46.80766002899214